sensor_id;sensor_type;location;lat;lon;timestamp;pressure;altitude;pressure_sealevel;temperature;humidity
52949;BME280;38812;50.942;3.644;2023-02-28T00:00:29;103069.31;;;-2.05;100.00
52949;BME280;38812;50.942;3.644;2023-02-28T00:02:55;103067.91;;;-2.14;100.00
52949;BME280;38812;50.942;3.644;2023-02-28T00:05:22;103063.38;;;-2.18;100.00
52949;BME280;38812;50.942;3.644;2023-02-28T00:07:48;103066.66;;;-2.20;100.00
52949;BME280;38812;50.942;3.644;2023-02-28T00:10:17;103059.88;;;-2.31;100.00
52949;BME280;38812;50.942;3.644;2023-02-28T00:12:46;103065.25;;;-2.28;100.00
52949;BME280;38812;50.942;3.644;2023-02-28T00:15:12;103064.81;;;-2.34;100.00
52949;BME280;38812;50.942;3.644;2023-02-28T00:17:38;103058.78;;;-2.35;100.00
52949;BME280;38812;50.942;3.644;2023-02-28T00:20:04;103057.88;;;-2.35;100.00
52949;BME280;38812;50.942;3.644;2023-02-28T00:22:33;103053.66;;;-2.22;100.00
52949;BME280;38812;50.942;3.644;2023-02-28T00:24:59;103050.19;;;-2.22;100.00
52949;BME280;38812;50.942;3.644;2023-02-28T00:27:24;103048.72;;;-2.19;100.00
52949;BME280;38812;50.942;3.644;2023-02-28T00:29:49;103058.13;;;-2.19;100.00
52949;BME280;38812;50.942;3.644;2023-02-28T00:32:15;103055.94;;;-2.26;100.00
52949;BME280;38812;50.942;3.644;2023-02-28T00:34:40;103057.31;;;-2.31;100.00
52949;BME280;38812;50.942;3.644;2023-02-28T00:37:07;103062.78;;;-2.27;100.00
52949;BME280;38812;50.942;3.644;2023-02-28T00:39:35;103047.84;;;-2.19;100.00
52949;BME280;38812;50.942;3.644;2023-02-28T00:42:01;103058.41;;;-2.15;100.00
52949;BME280;38812;50.942;3.644;2023-02-28T00:44:27;103057.44;;;-2.17;100.00
52949;BME280;38812;50.942;3.644;2023-02-28T00:46:53;103056.72;;;-2.14;100.00
52949;BME280;38812;50.942;3.644;2023-02-28T00:49:19;103061.00;;;-2.15;100.00
52949;BME280;38812;50.942;3.644;2023-02-28T00:51:45;103058.50;;;-2.13;100.00
52949;BME280;38812;50.942;3.644;2023-02-28T00:54:11;103063.66;;;-2.13;100.00
52949;BME280;38812;50.942;3.644;2023-02-28T00:56:36;103051.69;;;-2.26;100.00
52949;BME280;38812;50.942;3.644;2023-02-28T00:59:01;103067.03;;;-2.27;100.00
52949;BME280;38812;50.942;3.644;2023-02-28T01:01:27;103063.25;;;-2.32;100.00
52949;BME280;38812;50.942;3.644;2023-02-28T01:03:52;103054.31;;;-2.37;100.00
52949;BME280;38812;50.942;3.644;2023-02-28T01:06:18;103065.44;;;-2.25;100.00
52949;BME280;38812;50.942;3.644;2023-02-28T01:08:43;103063.06;;;-2.22;100.00
52949;BME280;38812;50.942;3.644;2023-02-28T01:11:11;103067.53;;;-2.20;100.00
52949;BME280;38812;50.942;3.644;2023-02-28T01:13:37;103069.28;;;-2.45;100.00
52949;BME280;38812;50.942;3.644;2023-02-28T01:16:02;103075.31;;;-2.45;100.00
52949;BME280;38812;50.942;3.644;2023-02-28T01:18:28;103074.69;;;-2.54;100.00
52949;BME280;38812;50.942;3.644;2023-02-28T01:20:53;103076.53;;;-2.39;100.00
52949;BME280;38812;50.942;3.644;2023-02-28T01:23:20;103071.63;;;-2.48;100.00
52949;BME280;38812;50.942;3.644;2023-02-28T01:25:46;103080.03;;;-2.51;100.00
52949;BME280;38812;50.942;3.644;2023-02-28T01:28:12;103076.00;;;-2.47;100.00
52949;BME280;38812;50.942;3.644;2023-02-28T01:30:37;103084.97;;;-2.54;100.00
52949;BME280;38812;50.942;3.644;2023-02-28T01:33:02;103071.78;;;-2.58;100.00
52949;BME280;38812;50.942;3.644;2023-02-28T01:35:28;103086.19;;;-2.49;100.00
52949;BME280;38812;50.942;3.644;2023-02-28T01:37:53;103085.97;;;-2.52;100.00
52949;BME280;38812;50.942;3.644;2023-02-28T01:40:19;103080.28;;;-2.59;100.00
52949;BME280;38812;50.942;3.644;2023-02-28T01:42:45;103087.16;;;-2.60;100.00
52949;BME280;38812;50.942;3.644;2023-02-28T01:45:24;103082.63;;;-2.51;100.00
52949;BME280;38812;50.942;3.644;2023-02-28T01:47:53;103083.09;;;-2.56;100.00
52949;BME280;38812;50.942;3.644;2023-02-28T01:50:22;103069.72;;;-2.64;100.00
52949;BME280;38812;50.942;3.644;2023-02-28T01:52:49;103072.91;;;-2.55;100.00
52949;BME280;38812;50.942;3.644;2023-02-28T01:55:18;103072.28;;;-2.64;100.00
52949;BME280;38812;50.942;3.644;2023-02-28T01:57:48;103057.31;;;-2.69;100.00
52949;BME280;38812;50.942;3.644;2023-02-28T02:00:20;103065.06;;;-2.56;100.00
52949;BME280;38812;50.942;3.644;2023-02-28T02:02:49;103062.81;;;-2.52;100.00
52949;BME280;38812;50.942;3.644;2023-02-28T02:05:21;103065.03;;;-2.45;100.00
52949;BME280;38812;50.942;3.644;2023-02-28T02:07:49;103049.38;;;-2.34;100.00
52949;BME280;38812;50.942;3.644;2023-02-28T02:10:21;103043.06;;;-2.39;100.00
52949;BME280;38812;50.942;3.644;2023-02-28T02:15:28;103053.72;;;-2.47;100.00
52949;BME280;38812;50.942;3.644;2023-02-28T02:18:05;103043.41;;;-2.60;100.00
52949;BME280;38812;50.942;3.644;2023-02-28T02:21:13;103054.09;;;-2.54;100.00
52949;BME280;38812;50.942;3.644;2023-02-28T02:24:10;103049.38;;;-2.48;100.00
52949;BME280;38812;50.942;3.644;2023-02-28T02:26:52;103036.66;;;-2.58;100.00
52949;BME280;38812;50.942;3.644;2023-02-28T02:32:14;103047.13;;;-2.68;100.00
52949;BME280;38812;50.942;3.644;2023-02-28T02:34:58;103043.72;;;-2.80;100.00
52949;BME280;38812;50.942;3.644;2023-02-28T02:40:25;103040.97;;;-3.08;100.00
52949;BME280;38812;50.942;3.644;2023-02-28T02:45:27;103046.56;;;-3.14;100.00
52949;BME280;38812;50.942;3.644;2023-02-28T02:47:56;103037.50;;;-3.08;100.00
52949;BME280;38812;50.942;3.644;2023-02-28T02:50:29;103037.31;;;-2.98;100.00
52949;BME280;38812;50.942;3.644;2023-02-28T02:52:59;103043.44;;;-2.85;100.00
52949;BME280;38812;50.942;3.644;2023-02-28T02:55:26;103045.16;;;-2.59;100.00
52949;BME280;38812;50.942;3.644;2023-02-28T02:58:00;103035.22;;;-2.79;100.00
52949;BME280;38812;50.942;3.644;2023-02-28T03:00:32;103043.25;;;-2.74;100.00
52949;BME280;38812;50.942;3.644;2023-02-28T03:03:01;103042.22;;;-2.90;100.00
52949;BME280;38812;50.942;3.644;2023-02-28T03:05:32;103045.94;;;-2.73;100.00
52949;BME280;38812;50.942;3.644;2023-02-28T03:08:03;103040.78;;;-2.73;100.00
52949;BME280;38812;50.942;3.644;2023-02-28T03:21:36;103052.31;;;-2.80;100.00
52949;BME280;38812;50.942;3.644;2023-02-28T03:24:19;103048.47;;;-2.86;100.00
52949;BME280;38812;50.942;3.644;2023-02-28T03:26:54;103043.31;;;-2.86;100.00
52949;BME280;38812;50.942;3.644;2023-02-28T03:29:35;103028.88;;;-2.84;100.00
52949;BME280;38812;50.942;3.644;2023-02-28T03:32:21;103031.38;;;-2.72;100.00
52949;BME280;38812;50.942;3.644;2023-02-28T03:35:03;103041.22;;;-2.67;100.00
52949;BME280;38812;50.942;3.644;2023-02-28T03:37:33;103036.63;;;-2.71;100.00
52949;BME280;38812;50.942;3.644;2023-02-28T03:40:06;103035.44;;;-2.76;100.00
52949;BME280;38812;50.942;3.644;2023-02-28T03:42:36;103030.81;;;-2.93;100.00
52949;BME280;38812;50.942;3.644;2023-02-28T03:45:13;103035.97;;;-2.93;100.00
52949;BME280;38812;50.942;3.644;2023-02-28T03:48:05;103040.19;;;-2.82;100.00
52949;BME280;38812;50.942;3.644;2023-02-28T03:50:39;103049.69;;;-3.06;100.00
52949;BME280;38812;50.942;3.644;2023-02-28T03:53:18;103032.88;;;-3.26;100.00
52949;BME280;38812;50.942;3.644;2023-02-28T03:55:57;103049.19;;;-3.25;100.00
52949;BME280;38812;50.942;3.644;2023-02-28T04:01:13;103040.16;;;-3.32;100.00
52949;BME280;38812;50.942;3.644;2023-02-28T04:03:40;103026.78;;;-3.51;100.00
52949;BME280;38812;50.942;3.644;2023-02-28T04:06:08;103048.75;;;-3.43;100.00
52949;BME280;38812;50.942;3.644;2023-02-28T04:08:38;103050.22;;;-3.35;100.00
52949;BME280;38812;50.942;3.644;2023-02-28T04:11:08;103048.19;;;-3.27;100.00
52949;BME280;38812;50.942;3.644;2023-02-28T04:13:40;103055.59;;;-3.07;100.00
52949;BME280;38812;50.942;3.644;2023-02-28T04:16:09;103048.47;;;-2.86;100.00
52949;BME280;38812;50.942;3.644;2023-02-28T04:18:38;103039.06;;;-2.86;100.00
52949;BME280;38812;50.942;3.644;2023-02-28T04:21:05;103027.56;;;-2.66;100.00
52949;BME280;38812;50.942;3.644;2023-02-28T04:23:30;103039.97;;;-2.47;100.00
52949;BME280;38812;50.942;3.644;2023-02-28T04:25:56;103048.59;;;-2.33;100.00
52949;BME280;38812;50.942;3.644;2023-02-28T04:28:21;103047.22;;;-2.28;100.00
52949;BME280;38812;50.942;3.644;2023-02-28T04:30:47;103044.66;;;-2.15;100.00
52949;BME280;38812;50.942;3.644;2023-02-28T04:33:12;103052.41;;;-2.02;100.00
52949;BME280;38812;50.942;3.644;2023-02-28T04:35:38;103048.34;;;-1.98;100.00
52949;BME280;38812;50.942;3.644;2023-02-28T04:38:03;103055.25;;;-1.84;100.00
52949;BME280;38812;50.942;3.644;2023-02-28T04:40:29;103060.13;;;-1.76;100.00
52949;BME280;38812;50.942;3.644;2023-02-28T04:42:54;103060.78;;;-1.65;100.00
52949;BME280;38812;50.942;3.644;2023-02-28T04:45:20;103054.81;;;-1.51;100.00
52949;BME280;38812;50.942;3.644;2023-02-28T04:47:45;103058.78;;;-1.43;100.00
52949;BME280;38812;50.942;3.644;2023-02-28T04:50:10;103064.00;;;-1.28;100.00
52949;BME280;38812;50.942;3.644;2023-02-28T04:52:36;103062.59;;;-1.23;100.00
52949;BME280;38812;50.942;3.644;2023-02-28T04:55:01;103069.94;;;-1.16;100.00
52949;BME280;38812;50.942;3.644;2023-02-28T04:57:27;103074.69;;;-1.09;100.00
52949;BME280;38812;50.942;3.644;2023-02-28T04:59:52;103069.13;;;-1.15;100.00
52949;BME280;38812;50.942;3.644;2023-02-28T05:02:17;103071.53;;;-1.18;100.00
52949;BME280;38812;50.942;3.644;2023-02-28T05:04:43;103066.50;;;-1.01;100.00
52949;BME280;38812;50.942;3.644;2023-02-28T05:07:08;103070.56;;;-1.05;100.00
52949;BME280;38812;50.942;3.644;2023-02-28T05:09:34;103064.72;;;-1.02;100.00
52949;BME280;38812;50.942;3.644;2023-02-28T05:12:00;103073.03;;;-0.93;100.00
52949;BME280;38812;50.942;3.644;2023-02-28T05:14:25;103068.41;;;-0.84;100.00
52949;BME280;38812;50.942;3.644;2023-02-28T05:16:50;103069.03;;;-0.88;100.00
52949;BME280;38812;50.942;3.644;2023-02-28T05:19:16;103066.00;;;-0.81;100.00
52949;BME280;38812;50.942;3.644;2023-02-28T05:21:52;103077.13;;;-0.82;100.00
52949;BME280;38812;50.942;3.644;2023-02-28T05:24:18;103070.94;;;-0.71;100.00
52949;BME280;38812;50.942;3.644;2023-02-28T05:26:53;103074.94;;;-0.76;100.00
52949;BME280;38812;50.942;3.644;2023-02-28T05:29:19;103072.16;;;-0.79;100.00
52949;BME280;38812;50.942;3.644;2023-02-28T05:31:45;103073.25;;;-0.76;100.00
52949;BME280;38812;50.942;3.644;2023-02-28T05:34:10;103077.91;;;-0.70;100.00
52949;BME280;38812;50.942;3.644;2023-02-28T05:36:38;103068.09;;;-0.61;100.00
52949;BME280;38812;50.942;3.644;2023-02-28T05:39:05;103078.63;;;-0.58;100.00
52949;BME280;38812;50.942;3.644;2023-02-28T05:41:32;103073.06;;;-0.64;100.00
52949;BME280;38812;50.942;3.644;2023-02-28T05:43:57;103068.75;;;-0.65;100.00
52949;BME280;38812;50.942;3.644;2023-02-28T05:46:24;103064.38;;;-0.66;100.00
52949;BME280;38812;50.942;3.644;2023-02-28T05:48:50;103049.50;;;-0.70;100.00
52949;BME280;38812;50.942;3.644;2023-02-28T05:51:16;103052.44;;;-0.64;100.00
52949;BME280;38812;50.942;3.644;2023-02-28T05:53:41;103061.44;;;-0.57;100.00
52949;BME280;38812;50.942;3.644;2023-02-28T05:56:07;103062.28;;;-0.44;100.00
52949;BME280;38812;50.942;3.644;2023-02-28T05:58:32;103065.72;;;-0.43;100.00
52949;BME280;38812;50.942;3.644;2023-02-28T06:00:59;103070.81;;;-0.30;100.00
52949;BME280;38812;50.942;3.644;2023-02-28T06:03:25;103068.75;;;-0.36;100.00
52949;BME280;38812;50.942;3.644;2023-02-28T06:05:51;103077.66;;;-0.30;100.00
52949;BME280;38812;50.942;3.644;2023-02-28T06:08:17;103080.25;;;-0.30;100.00
52949;BME280;38812;50.942;3.644;2023-02-28T06:10:42;103080.06;;;-0.33;100.00
52949;BME280;38812;50.942;3.644;2023-02-28T06:13:08;103092.84;;;-0.22;100.00
52949;BME280;38812;50.942;3.644;2023-02-28T06:15:33;103085.78;;;-0.24;100.00
52949;BME280;38812;50.942;3.644;2023-02-28T06:17:59;103085.78;;;-0.24;100.00
52949;BME280;38812;50.942;3.644;2023-02-28T06:20:26;103092.88;;;-0.20;100.00
52949;BME280;38812;50.942;3.644;2023-02-28T06:22:57;103090.94;;;-0.24;100.00
52949;BME280;38812;50.942;3.644;2023-02-28T06:25:26;103093.97;;;-0.17;100.00
52949;BME280;38812;50.942;3.644;2023-02-28T06:27:53;103094.84;;;-0.16;100.00
52949;BME280;38812;50.942;3.644;2023-02-28T06:30:19;103096.63;;;-0.15;100.00
52949;BME280;38812;50.942;3.644;2023-02-28T06:32:48;103099.13;;;-0.17;100.00
52949;BME280;38812;50.942;3.644;2023-02-28T06:35:14;103102.78;;;-0.13;100.00
52949;BME280;38812;50.942;3.644;2023-02-28T06:37:40;103096.63;;;-0.15;100.00
52949;BME280;38812;50.942;3.644;2023-02-28T06:40:05;103112.88;;;-0.03;100.00
52949;BME280;38812;50.942;3.644;2023-02-28T06:42:31;103095.38;;;0.08;100.00
52949;BME280;38812;50.942;3.644;2023-02-28T06:44:57;103096.47;;;0.11;100.00
52949;BME280;38812;50.942;3.644;2023-02-28T06:47:23;103104.28;;;0.27;100.00
52949;BME280;38812;50.942;3.644;2023-02-28T06:49:49;103100.69;;;0.40;100.00
52949;BME280;38812;50.942;3.644;2023-02-28T06:52:15;103106.53;;;0.52;100.00
52949;BME280;38812;50.942;3.644;2023-02-28T06:54:40;103098.66;;;0.65;100.00
52949;BME280;38812;50.942;3.644;2023-02-28T06:57:06;103084.34;;;0.72;100.00
52949;BME280;38812;50.942;3.644;2023-02-28T06:59:31;103096.13;;;0.82;100.00
52949;BME280;38812;50.942;3.644;2023-02-28T07:01:57;103102.34;;;0.85;100.00
52949;BME280;38812;50.942;3.644;2023-02-28T07:04:22;103100.72;;;0.87;100.00
52949;BME280;38812;50.942;3.644;2023-02-28T07:06:48;103097.19;;;0.85;100.00
52949;BME280;38812;50.942;3.644;2023-02-28T07:09:13;103094.59;;;1.01;100.00
52949;BME280;38812;50.942;3.644;2023-02-28T07:11:39;103095.75;;;1.07;100.00
52949;BME280;38812;50.942;3.644;2023-02-28T07:14:06;103090.78;;;1.11;100.00
52949;BME280;38812;50.942;3.644;2023-02-28T07:16:32;103088.09;;;1.10;100.00
52949;BME280;38812;50.942;3.644;2023-02-28T07:18:58;103099.13;;;1.22;100.00
52949;BME280;38812;50.942;3.644;2023-02-28T07:21:24;103102.19;;;1.31;100.00
52949;BME280;38812;50.942;3.644;2023-02-28T07:23:50;103091.19;;;1.35;100.00
52949;BME280;38812;50.942;3.644;2023-02-28T07:26:17;103098.63;;;1.45;100.00
52949;BME280;38812;50.942;3.644;2023-02-28T07:28:45;103093.63;;;1.48;100.00
52949;BME280;38812;50.942;3.644;2023-02-28T07:31:11;103085.16;;;1.52;100.00
52949;BME280;38812;50.942;3.644;2023-02-28T07:33:39;103097.72;;;1.61;100.00
52949;BME280;38812;50.942;3.644;2023-02-28T07:36:07;103088.25;;;1.61;100.00
52949;BME280;38812;50.942;3.644;2023-02-28T07:38:34;103085.16;;;1.68;100.00
52949;BME280;38812;50.942;3.644;2023-02-28T07:41:00;103099.47;;;1.78;100.00
52949;BME280;38812;50.942;3.644;2023-02-28T07:43:29;103082.22;;;1.79;100.00
52949;BME280;38812;50.942;3.644;2023-02-28T07:45:55;103092.56;;;1.95;100.00
52949;BME280;38812;50.942;3.644;2023-02-28T07:48:20;103099.88;;;2.03;100.00
52949;BME280;38812;50.942;3.644;2023-02-28T07:50:54;103087.66;;;2.01;100.00
52949;BME280;38812;50.942;3.644;2023-02-28T07:53:20;103091.53;;;2.09;100.00
52949;BME280;38812;50.942;3.644;2023-02-28T07:55:45;103099.16;;;2.06;100.00
52949;BME280;38812;50.942;3.644;2023-02-28T07:58:11;103100.28;;;2.11;100.00
52949;BME280;38812;50.942;3.644;2023-02-28T08:00:36;103101.09;;;2.10;100.00
52949;BME280;38812;50.942;3.644;2023-02-28T08:03:02;103084.06;;;2.15;100.00
52949;BME280;38812;50.942;3.644;2023-02-28T08:05:27;103089.59;;;2.23;100.00
52949;BME280;38812;50.942;3.644;2023-02-28T08:07:52;103101.81;;;2.25;100.00
52949;BME280;38812;50.942;3.644;2023-02-28T08:10:18;103091.22;;;2.38;100.00
52949;BME280;38812;50.942;3.644;2023-02-28T08:12:44;103085.16;;;2.38;100.00
52949;BME280;38812;50.942;3.644;2023-02-28T08:15:09;103077.38;;;2.56;100.00
52949;BME280;38812;50.942;3.644;2023-02-28T08:17:35;103078.66;;;2.65;100.00
52949;BME280;38812;50.942;3.644;2023-02-28T08:20:01;103084.91;;;2.88;100.00
52949;BME280;38812;50.942;3.644;2023-02-28T08:22:26;103084.31;;;3.13;100.00
52949;BME280;38812;50.942;3.644;2023-02-28T08:24:51;103077.97;;;3.45;100.00
52949;BME280;38812;50.942;3.644;2023-02-28T08:27:17;103077.91;;;3.43;100.00
52949;BME280;38812;50.942;3.644;2023-02-28T08:29:42;103072.28;;;3.34;100.00
52949;BME280;38812;50.942;3.644;2023-02-28T08:32:08;103083.84;;;3.41;100.00
52949;BME280;38812;50.942;3.644;2023-02-28T08:34:33;103073.88;;;3.31;100.00
52949;BME280;38812;50.942;3.644;2023-02-28T08:36:59;103083.28;;;3.29;100.00
52949;BME280;38812;50.942;3.644;2023-02-28T08:39:24;103082.75;;;3.17;100.00
52949;BME280;38812;50.942;3.644;2023-02-28T08:41:49;103091.53;;;3.19;100.00
52949;BME280;38812;50.942;3.644;2023-02-28T08:44:15;103078.91;;;3.28;100.00
52949;BME280;38812;50.942;3.644;2023-02-28T08:46:40;103079.75;;;3.27;100.00
52949;BME280;38812;50.942;3.644;2023-02-28T08:49:06;103082.63;;;3.14;100.00
52949;BME280;38812;50.942;3.644;2023-02-28T08:51:32;103083.44;;;3.32;100.00
52949;BME280;38812;50.942;3.644;2023-02-28T08:53:59;103097.84;;;3.25;100.00
52949;BME280;38812;50.942;3.644;2023-02-28T08:56:26;103073.19;;;3.16;100.00
52949;BME280;38812;50.942;3.644;2023-02-28T08:58:54;103081.94;;;3.37;100.00
52949;BME280;38812;50.942;3.644;2023-02-28T09:01:28;103096.44;;;3.13;100.00
52949;BME280;38812;50.942;3.644;2023-02-28T09:03:55;103102.50;;;3.13;100.00
52949;BME280;38812;50.942;3.644;2023-02-28T09:06:23;103106.97;;;3.16;100.00
52949;BME280;38812;50.942;3.644;2023-02-28T09:08:49;103104.50;;;2.99;100.00
52949;BME280;38812;50.942;3.644;2023-02-28T09:11:15;103112.44;;;2.85;100.00
52949;BME280;38812;50.942;3.644;2023-02-28T09:13:41;103104.47;;;2.80;100.00
52949;BME280;38812;50.942;3.644;2023-02-28T09:16:09;103108.41;;;2.72;100.00
52949;BME280;38812;50.942;3.644;2023-02-28T09:18:36;103112.56;;;2.68;100.00
52949;BME280;38812;50.942;3.644;2023-02-28T09:21:08;103106.63;;;2.71;100.00
52949;BME280;38812;50.942;3.644;2023-02-28T09:23:35;103090.75;;;2.65;100.00
52949;BME280;38812;50.942;3.644;2023-02-28T09:26:03;103101.72;;;2.77;100.00
52949;BME280;38812;50.942;3.644;2023-02-28T09:28:28;103096.69;;;2.80;100.00
52949;BME280;38812;50.942;3.644;2023-02-28T09:30:54;103101.88;;;2.80;100.00
52949;BME280;38812;50.942;3.644;2023-02-28T09:33:21;103096.06;;;2.86;100.00
52949;BME280;38812;50.942;3.644;2023-02-28T09:35:50;103087.44;;;2.87;100.00
52949;BME280;38812;50.942;3.644;2023-02-28T09:38:16;103078.69;;;2.85;100.00
52949;BME280;38812;50.942;3.644;2023-02-28T09:43:12;103085.94;;;2.92;100.00
52949;BME280;38812;50.942;3.644;2023-02-28T09:45:41;103077.94;;;2.87;100.00
52949;BME280;38812;50.942;3.644;2023-02-28T09:48:32;103087.38;;;2.85;100.00
52949;BME280;38812;50.942;3.644;2023-02-28T09:51:09;103091.69;;;3.04;100.00
52949;BME280;38812;50.942;3.644;2023-02-28T09:53:40;103080.56;;;3.26;100.00
52949;BME280;38812;50.942;3.644;2023-02-28T09:56:12;103079.63;;;3.24;100.00
52949;BME280;38812;50.942;3.644;2023-02-28T09:58:49;103103.75;;;3.40;100.00
52949;BME280;38812;50.942;3.644;2023-02-28T10:01:24;103095.31;;;3.27;100.00
52949;BME280;38812;50.942;3.644;2023-02-28T10:03:56;103090.63;;;3.18;100.00
52949;BME280;38812;50.942;3.644;2023-02-28T10:06:26;103089.94;;;3.22;100.00
52949;BME280;38812;50.942;3.644;2023-02-28T10:08:58;103088.25;;;3.23;100.00
52949;BME280;38812;50.942;3.644;2023-02-28T10:11:27;103077.41;;;3.33;100.00
52949;BME280;38812;50.942;3.644;2023-02-28T10:13:58;103085.50;;;3.39;100.00
52949;BME280;38812;50.942;3.644;2023-02-28T10:16:37;103088.06;;;3.58;100.00
52949;BME280;38812;50.942;3.644;2023-02-28T10:19:13;103083.13;;;3.64;100.00
52949;BME280;38812;50.942;3.644;2023-02-28T10:21:48;103080.84;;;3.93;100.00
52949;BME280;38812;50.942;3.644;2023-02-28T10:26:45;103073.13;;;3.94;100.00
52949;BME280;38812;50.942;3.644;2023-02-28T10:29:12;103068.16;;;4.21;100.00
52949;BME280;38812;50.942;3.644;2023-02-28T10:31:38;103062.41;;;4.51;99.49
52949;BME280;38812;50.942;3.644;2023-02-28T10:34:04;103066.41;;;4.42;93.90
52949;BME280;38812;50.942;3.644;2023-02-28T10:36:31;103074.13;;;4.19;85.45
52949;BME280;38812;50.942;3.644;2023-02-28T10:38:57;103073.25;;;4.18;79.50
52949;BME280;38812;50.942;3.644;2023-02-28T10:41:30;103063.88;;;4.01;81.76
52949;BME280;38812;50.942;3.644;2023-02-28T10:44:22;103050.75;;;4.41;82.35
52949;BME280;38812;50.942;3.644;2023-02-28T10:46:49;103052.34;;;4.60;78.47
52949;BME280;38812;50.942;3.644;2023-02-28T10:49:21;103049.97;;;4.66;73.45
52949;BME280;38812;50.942;3.644;2023-02-28T10:51:51;103050.28;;;4.73;72.51
52949;BME280;38812;50.942;3.644;2023-02-28T10:54:35;103034.75;;;5.24;71.61
52949;BME280;38812;50.942;3.644;2023-02-28T10:57:20;103031.78;;;5.37;69.76
52949;BME280;38812;50.942;3.644;2023-02-28T10:59:50;103022.91;;;6.37;69.48
52949;BME280;38812;50.942;3.644;2023-02-28T11:02:33;103033.28;;;6.92;62.82
52949;BME280;38812;50.942;3.644;2023-02-28T11:04:59;103004.38;;;6.86;66.79
52949;BME280;38812;50.942;3.644;2023-02-28T11:07:25;103030.59;;;6.61;63.46
52949;BME280;38812;50.942;3.644;2023-02-28T11:09:53;103017.59;;;6.34;63.21
52949;BME280;38812;50.942;3.644;2023-02-28T11:12:36;103021.13;;;6.36;64.79
52949;BME280;38812;50.942;3.644;2023-02-28T11:15:06;103010.34;;;5.97;63.90
52949;BME280;38812;50.942;3.644;2023-02-28T11:17:40;102999.91;;;5.97;64.55
52949;BME280;38812;50.942;3.644;2023-02-28T11:20:07;103006.97;;;6.28;65.81
52949;BME280;38812;50.942;3.644;2023-02-28T11:22:43;103002.03;;;6.37;65.12
52949;BME280;38812;50.942;3.644;2023-02-28T11:25:19;102996.50;;;6.26;64.43
52949;BME280;38812;50.942;3.644;2023-02-28T11:27:51;103005.53;;;6.66;64.35
52949;BME280;38812;50.942;3.644;2023-02-28T11:30:24;102991.63;;;6.67;62.25
52949;BME280;38812;50.942;3.644;2023-02-28T11:32:50;102992.81;;;7.09;63.25
52949;BME280;38812;50.942;3.644;2023-02-28T11:35:23;102997.78;;;6.40;64.80
52949;BME280;38812;50.942;3.644;2023-02-28T11:37:49;102983.88;;;6.71;60.78
52949;BME280;38812;50.942;3.644;2023-02-28T11:40:16;102969.09;;;6.72;60.89
52949;BME280;38812;50.942;3.644;2023-02-28T11:45:58;102986.66;;;6.46;60.99
52949;BME280;38812;50.942;3.644;2023-02-28T11:49:06;102986.41;;;6.38;60.35
52949;BME280;38812;50.942;3.644;2023-02-28T11:52:01;102987.28;;;6.67;62.44
52949;BME280;38812;50.942;3.644;2023-02-28T12:05:55;102944.50;;;6.64;58.90
52949;BME280;38812;50.942;3.644;2023-02-28T12:11:14;102960.06;;;6.31;58.51
52949;BME280;38812;50.942;3.644;2023-02-28T12:14:14;102961.56;;;6.23;56.32
52949;BME280;38812;50.942;3.644;2023-02-28T12:19:21;102943.25;;;6.21;56.07
52949;BME280;38812;50.942;3.644;2023-02-28T12:27:18;102943.44;;;6.27;53.43
52949;BME280;38812;50.942;3.644;2023-02-28T12:29:52;102940.50;;;6.16;53.59
52949;BME280;38812;50.942;3.644;2023-02-28T12:32:37;102925.28;;;6.02;53.65
52949;BME280;38812;50.942;3.644;2023-02-28T12:35:16;102941.19;;;6.11;53.74
52949;BME280;38812;50.942;3.644;2023-02-28T12:38:27;102937.00;;;6.44;54.79
52949;BME280;38812;50.942;3.644;2023-02-28T12:41:04;102938.78;;;6.45;56.92
52949;BME280;38812;50.942;3.644;2023-02-28T12:43:40;102922.78;;;6.65;56.98
52949;BME280;38812;50.942;3.644;2023-02-28T12:48:46;102926.69;;;6.50;52.97
52949;BME280;38812;50.942;3.644;2023-02-28T12:51:15;102909.00;;;6.10;51.91
52949;BME280;38812;50.942;3.644;2023-02-28T12:58:59;102895.28;;;6.79;51.00
52949;BME280;38812;50.942;3.644;2023-02-28T13:09:40;102890.81;;;6.75;51.66
52949;BME280;38812;50.942;3.644;2023-02-28T13:12:15;102890.41;;;6.91;51.66
52949;BME280;38812;50.942;3.644;2023-02-28T13:14:42;102890.75;;;6.40;50.25
52949;BME280;38812;50.942;3.644;2023-02-28T13:19:38;102897.84;;;6.16;50.41
52949;BME280;38812;50.942;3.644;2023-02-28T13:22:16;102895.19;;;6.14;51.06
52949;BME280;38812;50.942;3.644;2023-02-28T13:29:50;102875.84;;;6.36;50.86
52949;BME280;38812;50.942;3.644;2023-02-28T13:42:33;102885.34;;;6.34;51.87
52949;BME280;38812;50.942;3.644;2023-02-28T13:55:37;102881.47;;;5.92;53.12
52949;BME280;38812;50.942;3.644;2023-02-28T14:08:59;102875.19;;;5.58;51.00
52949;BME280;38812;50.942;3.644;2023-02-28T14:11:32;102886.94;;;5.72;52.70
52949;BME280;38812;50.942;3.644;2023-02-28T14:13:59;102869.13;;;5.59;53.01
52949;BME280;38812;50.942;3.644;2023-02-28T14:21:43;102874.25;;;5.56;52.89
52949;BME280;38812;50.942;3.644;2023-02-28T14:27:11;102876.50;;;5.72;51.25
52949;BME280;38812;50.942;3.644;2023-02-28T14:32:26;102870.34;;;5.70;51.62
52949;BME280;38812;50.942;3.644;2023-02-28T14:35:02;102877.19;;;5.67;51.27
52949;BME280;38812;50.942;3.644;2023-02-28T14:37:38;102863.50;;;5.47;52.79
52949;BME280;38812;50.942;3.644;2023-02-28T14:40:13;102860.91;;;5.47;53.03
52949;BME280;38812;50.942;3.644;2023-02-28T14:42:39;102869.19;;;5.34;54.15
52949;BME280;38812;50.942;3.644;2023-02-28T14:45:22;102876.53;;;5.47;52.86
52949;BME280;38812;50.942;3.644;2023-02-28T14:47:49;102888.38;;;5.36;52.10
52949;BME280;38812;50.942;3.644;2023-02-28T14:50:38;102873.78;;;5.15;52.27
52949;BME280;38812;50.942;3.644;2023-02-28T14:53:06;102871.63;;;5.29;51.97
52949;BME280;38812;50.942;3.644;2023-02-28T14:55:44;102870.47;;;5.20;52.06
52949;BME280;38812;50.942;3.644;2023-02-28T14:58:30;102871.91;;;5.11;52.19
52949;BME280;38812;50.942;3.644;2023-02-28T15:01:00;102864.53;;;5.25;53.25